createdAt,value
2022-10-16T00:02:15.390Z,0.22
2022-10-16T00:04:43.025Z,0.25
2022-10-16T00:07:10.139Z,0.30
2022-10-16T00:09:37.236Z,0.20
2022-10-16T00:12:05.423Z,0.32
2022-10-16T00:14:32.661Z,0.32
2022-10-16T00:16:59.783Z,0.22
2022-10-16T00:19:26.867Z,0.15
2022-10-16T00:21:54.009Z,0.20
2022-10-16T00:24:21.156Z,0.35
2022-10-16T00:26:51.073Z,0.30
2022-10-16T00:29:18.482Z,0.38
2022-10-16T00:31:45.697Z,0.38
2022-10-16T00:34:12.847Z,0.15
2022-10-16T00:36:40.008Z,0.20
2022-10-16T00:39:07.217Z,0.20
2022-10-16T00:41:34.433Z,0.30
2022-10-16T00:44:02.926Z,0.20
2022-10-16T00:46:36.203Z,0.30
2022-10-16T00:49:11.248Z,0.40
2022-10-16T00:51:40.471Z,0.30
2022-10-16T00:54:12.345Z,0.30
2022-10-16T00:56:39.571Z,0.30
2022-10-16T00:59:11.739Z,0.30
2022-10-16T01:01:39.003Z,0.38
2022-10-16T01:04:06.113Z,0.30
2022-10-16T01:06:41.105Z,0.40
2022-10-16T01:09:14.411Z,0.43
2022-10-16T01:12:00.715Z,0.60
2022-10-16T01:14:27.924Z,0.38
2022-10-16T01:17:00.007Z,0.47
2022-10-16T01:19:33.687Z,0.40
2022-10-16T01:24:34.092Z,0.35
2022-10-16T01:27:05.189Z,0.40
2022-10-16T01:29:38.683Z,0.50
2022-10-16T01:32:28.795Z,0.40
2022-10-16T01:35:00.102Z,0.50
2022-10-16T01:37:50.289Z,0.60
2022-10-16T01:40:18.533Z,0.15
2022-10-16T01:42:52.461Z,0.28
2022-10-16T01:45:21.008Z,0.40
2022-10-16T01:47:49.560Z,0.30
2022-10-16T01:50:17.768Z,0.40
2022-10-16T01:52:46.867Z,0.32
2022-10-16T01:55:15.779Z,0.38
2022-10-16T01:57:45.545Z,0.40
2022-10-16T02:00:14.285Z,0.55
2022-10-16T02:02:43.081Z,0.40
2022-10-16T02:05:23.652Z,0.30
2022-10-16T02:07:50.998Z,0.60
2022-10-16T02:10:18.322Z,0.30
2022-10-16T02:12:52.369Z,0.40
2022-10-16T02:15:19.920Z,0.25
2022-10-16T02:17:47.117Z,0.50
2022-10-16T02:20:14.441Z,0.35
2022-10-16T02:22:44.377Z,0.30
2022-10-16T02:25:13.120Z,0.35
2022-10-16T02:28:00.505Z,0.55
2022-10-16T02:30:27.703Z,0.20
2022-10-16T02:32:55.343Z,0.40
2022-10-16T02:35:24.056Z,0.50
2022-10-16T02:37:52.190Z,1.05
2022-10-16T02:40:22.823Z,0.50
2022-10-16T02:42:53.155Z,0.52
2022-10-16T02:45:21.044Z,1.48
2022-10-16T02:47:48.233Z,0.50
2022-10-16T02:50:15.447Z,0.80
2022-10-16T02:52:42.793Z,0.68
2022-10-16T02:55:10.437Z,0.45
2022-10-16T02:57:38.207Z,0.73
2022-10-16T03:00:06.435Z,0.80
2022-10-16T03:02:33.541Z,0.82
2022-10-16T03:05:00.689Z,1.30
2022-10-16T03:07:28.098Z,0.65
2022-10-16T03:09:56.457Z,0.60
2022-10-16T03:12:23.597Z,0.50
2022-10-16T03:14:50.688Z,0.60
2022-10-16T03:17:17.908Z,0.73
2022-10-16T03:19:45.127Z,0.60
2022-10-16T03:22:12.569Z,0.60
2022-10-16T03:24:39.739Z,0.73
2022-10-16T03:27:07.048Z,0.90
2022-10-16T03:29:34.584Z,0.77
2022-10-16T03:32:01.709Z,0.85
2022-10-16T03:34:29.020Z,0.70
2022-10-16T03:36:56.200Z,0.90
2022-10-16T03:39:23.455Z,0.75
2022-10-16T03:41:50.775Z,0.63
2022-10-16T03:44:17.972Z,0.80
2022-10-16T03:46:45.049Z,0.55
2022-10-16T03:49:12.302Z,1.00
2022-10-16T03:51:39.540Z,1.17
2022-10-16T03:54:06.650Z,0.90
2022-10-16T03:56:34.045Z,1.00
2022-10-16T03:59:01.177Z,1.20
2022-10-16T04:01:28.358Z,1.20
2022-10-16T04:03:55.654Z,1.30
2022-10-16T04:06:22.870Z,1.33
2022-10-16T04:08:50.157Z,0.80
2022-10-16T04:11:17.302Z,1.25
2022-10-16T04:13:44.844Z,0.90
2022-10-16T04:16:11.970Z,0.93
2022-10-16T04:18:39.093Z,1.10
2022-10-16T04:21:06.916Z,2.92
2022-10-16T04:23:34.007Z,0.80
2022-10-16T04:26:01.376Z,1.10
2022-10-16T04:28:28.645Z,0.93
2022-10-16T04:30:55.802Z,1.00
2022-10-16T04:33:22.936Z,0.90
2022-10-16T04:35:50.072Z,0.80
2022-10-16T04:38:17.262Z,0.40
2022-10-16T04:40:44.546Z,0.30
2022-10-16T04:43:11.789Z,0.40
2022-10-16T04:45:38.997Z,0.40
2022-10-16T04:48:06.132Z,0.40
2022-10-16T04:50:33.260Z,0.40
2022-10-16T04:53:00.772Z,0.30
2022-10-16T04:55:27.983Z,0.35
2022-10-16T04:57:55.137Z,0.60
2022-10-16T05:00:23.223Z,0.60
2022-10-16T05:02:52.162Z,2.90
2022-10-16T05:05:22.185Z,1.33
2022-10-16T05:07:50.790Z,0.70
2022-10-16T05:10:17.965Z,2.78
2022-10-16T05:12:45.122Z,0.90
2022-10-16T05:15:12.403Z,0.70
2022-10-16T05:17:42.548Z,0.45
2022-10-16T05:20:12.012Z,0.40
2022-10-16T05:22:39.181Z,0.50
2022-10-16T05:25:06.563Z,0.32
2022-10-16T05:27:33.652Z,0.70
2022-10-16T05:30:00.834Z,0.50
2022-10-16T05:32:27.937Z,0.57
2022-10-16T05:34:55.112Z,0.73
2022-10-16T05:37:22.240Z,1.42
2022-10-16T05:39:49.395Z,0.90
2022-10-16T05:42:16.599Z,0.68
2022-10-16T05:44:43.693Z,0.82
2022-10-16T05:47:11.947Z,0.80
2022-10-16T05:49:41.303Z,1.10
2022-10-16T05:52:08.796Z,0.80
2022-10-16T05:54:35.938Z,0.60
2022-10-16T05:57:03.253Z,0.80
2022-10-16T05:59:30.376Z,0.70
2022-10-16T06:01:57.552Z,0.90
2022-10-16T06:04:24.912Z,1.08
2022-10-16T06:06:52.009Z,0.60
2022-10-16T06:09:19.106Z,0.70
2022-10-16T06:11:46.300Z,0.80
2022-10-16T06:14:13.612Z,0.93
2022-10-16T06:16:40.709Z,0.90
2022-10-16T06:19:09.275Z,0.70
2022-10-16T06:21:36.415Z,0.70
2022-10-16T06:24:03.573Z,1.00
2022-10-16T06:26:31.908Z,1.00
2022-10-16T06:29:00.061Z,1.40
2022-10-16T06:31:31.246Z,2.08
2022-10-16T06:33:58.928Z,1.83
2022-10-16T06:36:26.654Z,2.88
2022-10-16T06:38:54.019Z,3.10
2022-10-16T06:41:22.711Z,3.28
2022-10-16T06:43:50.047Z,3.10
2022-10-16T06:46:18.891Z,2.08
2022-10-16T06:48:46.106Z,1.48
2022-10-16T06:51:14.498Z,1.25
2022-10-16T06:54:01.919Z,1.63
2022-10-16T06:56:32.029Z,1.52
2022-10-16T06:58:59.488Z,1.80
2022-10-16T07:01:27.737Z,1.98
2022-10-16T07:03:54.890Z,2.40
2022-10-16T07:06:23.313Z,1.92
2022-10-16T07:08:50.742Z,2.17
2022-10-16T07:11:22.565Z,2.30
2022-10-16T07:13:54.780Z,1.75
2022-10-16T07:18:55.410Z,2.15
2022-10-16T07:21:23.987Z,2.00
2022-10-16T07:23:58.817Z,2.00
2022-10-16T07:26:26.501Z,2.35
2022-10-16T07:28:53.784Z,5.38
2022-10-16T07:31:27.289Z,2.85
2022-10-16T07:33:54.839Z,3.40
2022-10-16T07:36:22.326Z,3.85
2022-10-16T07:38:54.205Z,15.23
2022-10-16T07:41:24.855Z,8.60
2022-10-16T07:43:53.198Z,1.70
2022-10-16T07:46:21.664Z,1.27
2022-10-16T07:48:49.450Z,4.07
2022-10-16T07:51:17.789Z,4.10
2022-10-16T07:53:44.990Z,1.10
2022-10-16T07:56:12.905Z,0.90
2022-10-16T07:58:40.404Z,0.77
2022-10-16T08:01:08.585Z,0.60
2022-10-16T08:03:35.878Z,0.50
2022-10-16T08:06:03.358Z,0.60
2022-10-16T08:08:30.896Z,0.85
2022-10-16T08:10:58.309Z,1.48
2022-10-16T08:13:25.681Z,0.80
2022-10-16T08:15:52.827Z,0.68
2022-10-16T08:18:20.396Z,0.68
2022-10-16T08:20:47.576Z,0.65
2022-10-16T08:23:15.152Z,0.70
2022-10-16T08:25:42.957Z,0.80
2022-10-16T08:28:13.894Z,0.63
2022-10-16T08:30:41.176Z,1.00
2022-10-16T08:33:09.769Z,0.85
2022-10-16T08:35:36.904Z,0.98
2022-10-16T08:38:08.196Z,0.80
2022-10-16T08:40:37.520Z,0.60
2022-10-16T08:43:14.012Z,0.80
2022-10-16T08:46:08.351Z,1.00
2022-10-16T08:48:41.564Z,0.90
2022-10-16T08:51:09.835Z,0.70
2022-10-16T08:53:45.346Z,0.60
2022-10-16T08:56:12.522Z,0.95
2022-10-16T08:58:39.674Z,0.50
2022-10-16T09:01:13.361Z,0.73
2022-10-16T09:03:52.680Z,0.60
2022-10-16T09:06:19.843Z,0.50
2022-10-16T09:08:49.984Z,0.40
2022-10-16T09:11:23.480Z,0.70
2022-10-16T09:14:02.535Z,0.70
2022-10-16T09:16:35.694Z,0.80
2022-10-16T09:19:06.957Z,0.70
2022-10-16T09:21:45.180Z,0.38
2022-10-16T09:24:12.346Z,0.40
2022-10-16T09:26:39.603Z,0.57
2022-10-16T09:29:06.770Z,0.60
2022-10-16T09:31:38.283Z,0.50
2022-10-16T09:34:07.327Z,0.50
2022-10-16T09:36:41.760Z,0.60
2022-10-16T09:39:10.495Z,0.70
2022-10-16T09:41:38.985Z,0.45
2022-10-16T09:44:15.670Z,0.40
2022-10-16T09:46:42.849Z,0.60
2022-10-16T09:49:24.079Z,0.40
2022-10-16T09:51:51.845Z,0.70
2022-10-16T09:54:20.728Z,0.50
2022-10-16T09:56:52.605Z,0.35
2022-10-16T09:59:20.970Z,0.47
2022-10-16T10:01:49.362Z,0.50
2022-10-16T10:04:16.783Z,0.70
2022-10-16T10:06:46.142Z,0.30
2022-10-16T10:09:21.200Z,0.40
2022-10-16T10:11:58.675Z,0.40
2022-10-16T10:14:25.828Z,0.40
2022-10-16T10:17:08.248Z,0.70
2022-10-16T10:19:53.864Z,0.35
2022-10-16T10:22:21.005Z,0.40
2022-10-16T10:24:57.221Z,0.40
2022-10-16T10:27:27.749Z,0.30
2022-10-16T10:30:07.007Z,0.30
2022-10-16T10:32:53.065Z,0.30
2022-10-16T10:35:23.332Z,0.40
2022-10-16T10:37:59.574Z,0.30
2022-10-16T10:40:36.497Z,0.30
2022-10-16T10:43:09.726Z,0.50
2022-10-16T10:45:49.916Z,0.70
2022-10-16T10:48:21.311Z,0.55
2022-10-16T10:50:56.010Z,0.70
2022-10-16T10:53:30.829Z,0.60
2022-10-16T10:56:15.248Z,0.50
2022-10-16T10:58:58.663Z,0.50
2022-10-16T11:01:38.144Z,0.50
2022-10-16T11:04:14.145Z,0.60
2022-10-16T11:09:13.706Z,0.60
2022-10-16T11:11:44.173Z,0.40
2022-10-16T11:14:17.580Z,0.60
2022-10-16T11:16:54.088Z,0.88
2022-10-16T11:19:40.078Z,0.70
2022-10-16T11:22:25.968Z,0.50
2022-10-16T11:24:53.086Z,0.55
2022-10-16T11:27:35.807Z,0.55
2022-10-16T11:30:05.501Z,0.80
2022-10-16T11:33:05.137Z,0.60
2022-10-16T11:35:38.034Z,0.60
2022-10-16T11:38:05.441Z,1.90
2022-10-16T11:40:38.243Z,1.00
2022-10-16T11:43:17.639Z,0.57
2022-10-16T11:45:46.617Z,0.77
2022-10-16T11:48:24.746Z,0.68
2022-10-16T11:50:54.893Z,0.82
2022-10-16T11:53:51.279Z,1.25
2022-10-16T11:56:20.285Z,0.95
2022-10-16T11:58:59.607Z,0.70
2022-10-16T12:01:45.345Z,0.65
2022-10-16T12:04:19.039Z,0.63
2022-10-16T12:06:49.461Z,0.70
2022-10-16T12:09:36.547Z,0.60
2022-10-16T12:12:03.687Z,0.75
2022-10-16T12:14:30.807Z,0.40
2022-10-16T12:17:00.622Z,0.35
2022-10-16T12:19:29.833Z,0.45
2022-10-16T12:21:58.216Z,0.50
2022-10-16T12:24:44.699Z,0.30
2022-10-16T12:27:30.778Z,0.30
2022-10-16T12:29:59.969Z,0.65
2022-10-16T12:32:47.120Z,0.20
2022-10-16T12:35:25.513Z,0.43
2022-10-16T12:37:53.940Z,0.28
2022-10-16T12:40:32.113Z,0.30
2022-10-16T12:42:59.419Z,0.20
2022-10-16T12:45:32.152Z,0.43
2022-10-16T12:48:00.318Z,0.30
2022-10-16T12:50:41.662Z,0.25
2022-10-16T12:53:29.170Z,0.28
2022-10-16T12:56:11.586Z,0.20
2022-10-16T12:58:57.439Z,0.30
2022-10-16T13:01:36.037Z,0.30
2022-10-16T13:04:22.450Z,0.20
2022-10-16T13:07:01.245Z,0.60
2022-10-16T13:09:40.679Z,0.40
2022-10-16T13:12:17.725Z,0.30
2022-10-16T13:14:47.968Z,0.32
2022-10-16T13:17:27.573Z,0.20
2022-10-16T13:20:01.625Z,0.17
2022-10-16T13:22:33.980Z,0.20
2022-10-16T13:25:20.141Z,0.25
2022-10-16T13:27:47.340Z,0.20
2022-10-16T13:30:19.440Z,0.20
2022-10-16T13:32:48.614Z,0.20
2022-10-16T13:35:29.618Z,0.20
2022-10-16T13:38:26.660Z,0.25
2022-10-16T13:40:55.282Z,0.10
2022-10-16T13:43:27.848Z,0.20
2022-10-16T13:46:02.991Z,0.20
2022-10-16T13:48:30.823Z,0.17
2022-10-16T13:51:05.706Z,0.10
2022-10-16T13:53:33.625Z,0.30
2022-10-16T13:56:01.403Z,0.20
2022-10-16T13:58:28.677Z,0.28
2022-10-16T14:00:57.482Z,0.20
2022-10-16T14:03:24.659Z,0.25
2022-10-16T14:05:53.475Z,0.20
2022-10-16T14:08:21.123Z,0.20
2022-10-16T14:10:53.094Z,0.30
2022-10-16T14:13:21.597Z,0.17
2022-10-16T14:15:50.272Z,0.20
2022-10-16T14:18:22.611Z,0.30
2022-10-16T14:20:50.577Z,0.20
2022-10-16T14:23:20.473Z,0.17
2022-10-16T14:25:48.268Z,0.30
2022-10-16T14:28:15.570Z,0.10
2022-10-16T14:31:00.125Z,0.20
2022-10-16T14:33:30.972Z,0.20
2022-10-16T14:36:06.707Z,0.30
2022-10-16T14:38:34.838Z,0.10
2022-10-16T14:41:02.719Z,0.30
2022-10-16T14:43:33.089Z,0.30
2022-10-16T14:46:00.306Z,0.30
2022-10-16T14:48:28.042Z,0.30
2022-10-16T14:50:55.329Z,0.20
2022-10-16T14:53:22.489Z,0.30
2022-10-16T14:55:49.838Z,0.50
2022-10-16T14:58:18.151Z,0.30
2022-10-16T15:00:45.357Z,0.40
2022-10-16T15:03:12.601Z,0.32
2022-10-16T15:05:39.762Z,0.45
2022-10-16T15:08:06.976Z,0.50
2022-10-16T15:10:37.504Z,0.70
2022-10-16T15:13:04.837Z,0.82
2022-10-16T15:15:36.819Z,0.40
2022-10-16T15:18:04.456Z,0.90
2022-10-16T15:20:34.740Z,0.50
2022-10-16T15:23:02.927Z,0.40
2022-10-16T15:25:30.041Z,1.13
2022-10-16T15:27:57.187Z,1.10
2022-10-16T15:30:24.397Z,0.70
2022-10-16T15:32:51.523Z,0.80
2022-10-16T15:35:18.722Z,0.80
2022-10-16T15:37:45.955Z,0.40
2022-10-16T15:40:13.140Z,0.50
2022-10-16T15:42:40.283Z,0.60
2022-10-16T15:45:07.792Z,0.70
2022-10-16T15:47:34.928Z,0.40
2022-10-16T15:50:02.063Z,0.50
2022-10-16T15:52:29.769Z,0.50
2022-10-16T15:54:56.997Z,0.60
2022-10-16T15:57:24.946Z,0.63
2022-10-16T15:59:52.353Z,0.73
2022-10-16T16:02:19.542Z,0.50
2022-10-16T16:04:46.748Z,0.43
2022-10-16T16:07:14.057Z,0.80
2022-10-16T16:09:41.215Z,0.60
2022-10-16T16:12:08.403Z,0.90
2022-10-16T16:14:35.495Z,0.80
2022-10-16T16:17:03.109Z,1.08
2022-10-16T16:19:30.266Z,1.50
2022-10-16T16:21:57.483Z,1.70
2022-10-16T16:24:24.703Z,2.78
2022-10-16T16:26:51.865Z,5.30
2022-10-16T16:29:19.052Z,4.53
2022-10-16T16:31:48.049Z,4.18
2022-10-16T16:34:15.442Z,5.50
2022-10-16T16:36:42.999Z,3.28
2022-10-16T16:39:11.458Z,3.92
2022-10-16T16:41:38.710Z,3.53
2022-10-16T16:44:08.514Z,3.70
2022-10-16T16:46:35.758Z,2.47
2022-10-16T16:49:03.310Z,1.60
2022-10-16T16:51:30.796Z,1.58
2022-10-16T16:53:57.905Z,1.75
2022-10-16T16:56:25.699Z,1.40
2022-10-16T16:58:53.943Z,1.52
2022-10-16T17:01:21.885Z,1.63
2022-10-16T17:03:53.180Z,1.35
2022-10-16T17:06:33.124Z,2.20
2022-10-16T17:09:00.464Z,1.80
2022-10-16T17:11:28.420Z,1.85
2022-10-16T17:13:57.079Z,1.30
2022-10-16T17:16:28.503Z,1.80
2022-10-16T17:18:55.609Z,2.40
2022-10-16T17:21:23.318Z,2.67
2022-10-16T17:23:53.330Z,2.75
2022-10-16T17:26:20.612Z,2.22
2022-10-16T17:28:47.808Z,2.20
2022-10-16T17:31:16.346Z,2.42
2022-10-16T17:33:44.103Z,2.47
2022-10-16T17:36:12.035Z,2.80
2022-10-16T17:38:39.153Z,2.63
2022-10-16T17:41:16.565Z,2.75
2022-10-16T17:43:43.746Z,2.70
2022-10-16T17:46:11.971Z,2.33
2022-10-16T17:48:39.847Z,2.20
2022-10-16T17:51:08.409Z,2.75
2022-10-16T17:53:35.949Z,2.40
2022-10-16T17:56:04.240Z,2.97
2022-10-16T17:58:31.566Z,2.70
2022-10-16T18:00:58.806Z,2.72
2022-10-16T18:03:28.827Z,3.10
2022-10-16T18:05:56.644Z,3.58
2022-10-16T18:08:27.918Z,3.20
2022-10-16T18:10:56.065Z,2.95
2022-10-16T18:13:23.602Z,3.15
2022-10-16T18:16:00.721Z,2.60
2022-10-16T18:18:29.673Z,2.70
2022-10-16T18:21:01.534Z,2.80
2022-10-16T18:23:29.301Z,2.40
2022-10-16T18:25:56.954Z,2.80
2022-10-16T18:28:24.268Z,3.03
2022-10-16T18:30:57.751Z,3.10
2022-10-16T18:33:25.115Z,3.17
2022-10-16T18:35:52.496Z,3.17
2022-10-16T18:38:19.648Z,3.03
2022-10-16T18:40:46.988Z,3.58
2022-10-16T18:43:14.237Z,3.45
2022-10-16T18:45:41.354Z,3.75
2022-10-16T18:48:08.780Z,3.17
2022-10-16T18:50:35.943Z,2.78
2022-10-16T18:53:03.092Z,3.00
2022-10-16T18:55:31.042Z,2.88
2022-10-16T18:57:58.352Z,2.70
2022-10-16T19:00:25.444Z,2.70
2022-10-16T19:02:52.640Z,2.65
2022-10-16T19:05:19.814Z,2.88
2022-10-16T19:07:48.403Z,2.88
2022-10-16T19:10:15.939Z,2.97
2022-10-16T19:12:43.203Z,2.80
2022-10-16T19:15:10.488Z,3.35
2022-10-16T19:17:38.157Z,3.75
2022-10-16T19:20:06.613Z,4.10
2022-10-16T19:22:54.645Z,3.90
2022-10-16T19:25:24.735Z,3.47
2022-10-16T19:27:52.643Z,3.13
2022-10-16T19:30:20.125Z,3.40
2022-10-16T19:32:49.545Z,3.60
2022-10-16T19:35:17.363Z,3.55
2022-10-16T19:37:44.526Z,3.25
2022-10-16T19:40:11.786Z,4.00
2022-10-16T19:42:43.572Z,3.70
2022-10-16T19:45:10.981Z,4.38
2022-10-16T19:47:38.243Z,4.20
2022-10-16T19:50:06.498Z,4.18
2022-10-16T19:52:33.950Z,5.10
2022-10-16T19:55:01.109Z,4.30
2022-10-16T19:57:28.309Z,4.28
2022-10-16T19:59:55.872Z,4.30
2022-10-16T20:02:23.034Z,4.63
2022-10-16T20:04:50.201Z,4.35
2022-10-16T20:07:17.507Z,3.92
2022-10-16T20:09:44.674Z,4.50
2022-10-16T20:12:11.863Z,3.97
2022-10-16T20:14:38.945Z,4.05
2022-10-16T20:17:06.177Z,3.60
2022-10-16T20:19:34.364Z,3.10
2022-10-16T20:22:01.958Z,3.63
2022-10-16T20:24:29.102Z,3.08
2022-10-16T20:26:56.345Z,2.95
2022-10-16T20:29:23.437Z,3.25
2022-10-16T20:31:50.551Z,3.45
2022-10-16T20:34:17.719Z,3.03
2022-10-16T20:36:45.744Z,3.63
2022-10-16T20:39:16.212Z,3.55
2022-10-16T20:41:43.388Z,3.10
2022-10-16T20:44:10.486Z,3.42
2022-10-16T20:46:37.612Z,3.05
2022-10-16T20:49:10.838Z,3.20
2022-10-16T20:51:39.050Z,3.38
2022-10-16T20:54:07.563Z,2.78
2022-10-16T20:56:35.854Z,3.03
2022-10-16T20:59:03.849Z,2.95
2022-10-16T21:01:31.994Z,3.13
2022-10-16T21:04:01.670Z,3.40
2022-10-16T21:06:29.414Z,3.03
2022-10-16T21:08:56.575Z,3.20
2022-10-16T21:11:25.245Z,3.22
2022-10-16T21:13:53.239Z,2.92
2022-10-16T21:16:20.373Z,3.28
2022-10-16T21:18:47.630Z,3.20
2022-10-16T21:21:20.948Z,3.25
2022-10-16T21:23:48.785Z,3.20
2022-10-16T21:26:16.464Z,3.17
2022-10-16T21:28:43.817Z,2.80
2022-10-16T21:31:14.622Z,3.10
2022-10-16T21:33:41.954Z,2.75
2022-10-16T21:36:40.477Z,2.60
2022-10-16T21:39:11.521Z,2.90
2022-10-16T21:41:38.914Z,3.15
2022-10-16T21:44:08.421Z,2.80
2022-10-16T21:46:39.229Z,3.10
2022-10-16T21:49:09.728Z,2.67
2022-10-16T21:51:40.586Z,3.75
2022-10-16T21:54:08.462Z,3.13
2022-10-16T21:56:38.030Z,3.03
2022-10-16T21:59:05.861Z,3.22
2022-10-16T22:01:33.231Z,3.10
2022-10-16T22:04:00.615Z,3.28
2022-10-16T22:06:28.430Z,3.63
2022-10-16T22:09:01.528Z,2.92
2022-10-16T22:11:31.520Z,2.90
2022-10-16T22:13:58.911Z,2.65
2022-10-16T22:16:27.282Z,2.90
2022-10-16T22:19:02.762Z,2.75
2022-10-16T22:21:32.439Z,2.90
2022-10-16T22:24:00.324Z,2.83
2022-10-16T22:26:29.949Z,3.33
2022-10-16T22:28:57.117Z,3.20
2022-10-16T22:31:24.372Z,3.40
2022-10-16T22:33:55.290Z,3.00
2022-10-16T22:36:27.120Z,3.08
2022-10-16T22:38:54.494Z,2.63
2022-10-16T22:41:21.869Z,3.00
2022-10-16T22:43:49.456Z,3.55
2022-10-16T22:46:34.825Z,3.38
2022-10-16T22:49:01.974Z,3.10
2022-10-16T22:51:31.483Z,2.95
2022-10-16T22:53:59.311Z,2.75
2022-10-16T22:56:28.917Z,3.17
2022-10-16T22:58:56.088Z,3.00
2022-10-16T23:01:27.650Z,3.00
2022-10-16T23:03:57.313Z,3.05
2022-10-16T23:06:24.582Z,3.35
2022-10-16T23:08:57.703Z,3.05
2022-10-16T23:11:25.095Z,2.47
2022-10-16T23:13:52.700Z,2.90
2022-10-16T23:16:23.448Z,2.75
2022-10-16T23:18:51.211Z,2.90
2022-10-16T23:21:20.901Z,3.10
2022-10-16T23:23:48.232Z,2.60
2022-10-16T23:26:20.194Z,3.20
2022-10-16T23:28:47.606Z,3.28
2022-10-16T23:31:15.640Z,2.92
2022-10-16T23:33:45.394Z,3.00
2022-10-16T23:36:16.630Z,3.28
2022-10-16T23:38:44.002Z,2.92
2022-10-16T23:41:11.537Z,3.03
2022-10-16T23:43:38.752Z,3.10
2022-10-16T23:46:06.547Z,2.85
2022-10-16T23:48:33.768Z,2.90
2022-10-16T23:51:01.196Z,3.03
2022-10-16T23:53:28.481Z,2.95
2022-10-16T23:55:55.684Z,3.55
2022-10-16T23:58:23.317Z,3.10
